Time;durP1;ratioP1;P1;durP2;ratioP2;P2;SDS_P1;SDS_P2;PMS_P1;PMS_P2;Temp;Humidity;BMP_temperature;BMP_pressure;BME280_temperature;BME280_humidity;BME280_pressure;Samples;Min_cycle;Max_cycle;Signal;HPM_P1;HPM_P2
2021/07/30 00:01:07;;;;;;;3.20;1.10;;;18.70;96.80;;;;;;5020817;28;20593;-81
2021/07/30 00:03:32;;;;;;;2.17;1.23;;;18.70;96.90;;;;;;5013709;28;20241;-81
2021/07/30 00:05:58;;;;;;;3.30;1.10;;;18.70;97.20;;;;;;5009389;28;20680;-81
2021/07/30 00:08:24;;;;;;;4.00;1.13;;;18.70;97.40;;;;;;5008720;28;20203;-81
2021/07/30 00:10:54;;;;;;;2.23;1.30;;;18.60;97.60;;;;;;5008864;28;20236;-81
2021/07/30 00:13:20;;;;;;;3.03;1.47;;;18.60;98.10;;;;;;5000299;28;20171;-81
2021/07/30 00:15:45;;;;;;;2.40;1.20;;;18.60;98.10;;;;;;4997753;28;20580;-81
2021/07/30 00:18:11;;;;;;;3.23;1.20;;;18.60;98.40;;;;;;4998874;28;20265;-82
2021/07/30 00:20:37;;;;;;;3.83;1.27;;;18.60;98.50;;;;;;4998602;28;20531;-81
2021/07/30 00:23:02;;;;;;;5.50;1.33;;;18.60;98.80;;;;;;4996649;28;20183;-81
2021/07/30 00:25:28;;;;;;;2.67;1.30;;;18.60;99.00;;;;;;4997086;28;20237;-81
2021/07/30 00:27:54;;;;;;;2.30;1.47;;;18.60;99.20;;;;;;4998170;28;20193;-81
2021/07/30 00:30:20;;;;;;;3.00;1.60;;;18.70;99.50;;;;;;4996694;28;20630;-81
2021/07/30 00:32:45;;;;;;;2.00;1.33;;;18.70;99.70;;;;;;4995700;28;20167;-81
2021/07/30 00:35:11;;;;;;;2.77;1.47;;;18.70;99.80;;;;;;4995304;28;20170;-82
2021/07/30 00:37:37;;;;;;;5.17;2.30;;;18.80;99.90;;;;;;4994769;28;20225;-82
2021/07/30 00:40:05;;;;;;;2.77;1.10;;;18.90;99.90;;;;;;4996309;28;20175;-82
2021/07/30 00:42:31;;;;;;;2.13;1.30;;;18.90;99.90;;;;;;4997307;28;20574;-82
2021/07/30 00:45:00;;;;;;;3.67;1.10;;;18.90;99.90;;;;;;4996830;28;20562;-82
2021/07/30 00:47:28;;;;;;;1.70;1.13;;;19.00;99.90;;;;;;4980645;28;20578;-82
2021/07/30 00:49:56;;;;;;;4.03;1.47;;;18.90;99.90;;;;;;4996806;28;21379;-82
2021/07/30 00:52:22;;;;;;;2.27;1.60;;;19.00;99.90;;;;;;4995038;28;20593;-82
2021/07/30 00:54:48;;;;;;;4.27;1.20;;;19.00;99.90;;;;;;4995549;28;20574;-82
2021/07/30 00:57:14;;;;;;;2.77;1.33;;;19.00;99.90;;;;;;5011134;28;20608;-82
2021/07/30 00:59:40;;;;;;;3.00;1.20;;;19.00;99.90;;;;;;4975797;28;21003;-82
2021/07/30 01:02:06;;;;;;;2.20;1.13;;;19.00;99.90;;;;;;4977621;28;20554;-82
2021/07/30 01:04:32;;;;;;;2.43;1.40;;;19.00;99.90;;;;;;4976561;28;20581;-82
2021/07/30 01:06:58;;;;;;;5.13;1.30;;;19.00;99.90;;;;;;4975069;28;20587;-82
2021/07/30 01:09:23;;;;;;;3.63;1.30;;;19.10;99.90;;;;;;4974701;28;20318;-82
2021/07/30 01:11:50;;;;;;;3.03;1.37;;;19.10;99.90;;;;;;4976307;28;20629;-82
2021/07/30 01:14:16;;;;;;;2.37;1.37;;;19.10;99.90;;;;;;4976149;28;20744;-82
2021/07/30 01:16:42;;;;;;;1.90;1.30;;;19.10;99.90;;;;;;4974634;28;20607;-82
2021/07/30 01:19:24;;;;;;;3.03;1.50;;;19.10;99.90;;;;;;4976266;28;20197;-82
2021/07/30 01:21:54;;;;;;;3.23;1.20;;;19.00;99.90;;;;;;4975910;28;20194;-82
2021/07/30 01:24:21;;;;;;;4.60;1.33;;;19.10;99.90;;;;;;4974667;28;20576;-82
2021/07/30 01:26:48;;;;;;;2.23;1.30;;;19.00;99.90;;;;;;4973425;28;20686;-82
2021/07/30 01:29:14;;;;;;;2.90;1.10;;;19.00;99.90;;;;;;4956503;28;20638;-82
2021/07/30 01:31:39;;;;;;;7.30;1.50;;;19.00;99.90;;;;;;4956927;28;20582;-82
2021/07/30 01:34:05;;;;;;;2.00;1.20;;;19.00;99.90;;;;;;4973018;28;20183;-82
2021/07/30 01:36:31;;;;;;;2.97;1.23;;;18.90;99.90;;;;;;4973643;28;20938;-81
2021/07/30 01:38:56;;;;;;;3.03;1.17;;;18.90;99.90;;;;;;4976215;28;20195;-81
2021/07/30 01:41:23;;;;;;;4.23;1.40;;;18.90;99.90;;;;;;4975539;28;20655;-82
2021/07/30 01:43:49;;;;;;;4.07;1.80;;;18.90;99.90;;;;;;4975229;28;20180;-82
2021/07/30 01:46:14;;;;;;;3.30;1.10;;;18.90;99.90;;;;;;4972875;28;21155;-82
2021/07/30 01:48:40;;;;;;;3.33;1.30;;;18.90;99.90;;;;;;4973968;28;20218;-82
2021/07/30 01:51:06;;;;;;;1.80;1.13;;;18.90;99.90;;;;;;4980947;28;20219;-82
2021/07/30 01:53:32;;;;;;;2.73;1.13;;;18.90;99.90;;;;;;4989192;28;20164;-82
2021/07/30 01:56:03;;;;;;;2.03;1.20;;;18.90;99.90;;;;;;4992909;28;20686;-82
2021/07/30 01:58:33;;;;;;;1.80;1.03;;;18.90;99.90;;;;;;4979506;28;20646;-82
2021/07/30 02:00:58;;;;;;;2.53;1.20;;;18.90;99.90;;;;;;4977505;28;20615;-82
2021/07/30 02:03:24;;;;;;;2.73;1.20;;;18.90;99.90;;;;;;4976296;28;20587;-82
2021/07/30 02:05:50;;;;;;;3.00;1.33;;;18.90;99.90;;;;;;4960349;28;20182;-82
2021/07/30 02:08:15;;;;;;;3.67;1.50;;;18.90;99.90;;;;;;4975637;28;20559;-82
2021/07/30 02:10:41;;;;;;;1.80;1.00;;;18.90;99.90;;;;;;4977181;28;20202;-82
2021/07/30 02:15:51;;;;;;;3.87;2.30;;;18.90;99.90;;;;;;4975844;28;20244;-81
2021/07/30 02:18:17;;;;;;;3.63;1.40;;;18.90;99.90;;;;;;4975169;28;20622;-82
2021/07/30 02:20:43;;;;;;;1.70;1.00;;;18.90;99.90;;;;;;4958621;28;20571;-82
2021/07/30 02:23:09;;;;;;;2.13;1.10;;;18.80;99.90;;;;;;4975761;28;20673;-82
2021/07/30 02:25:34;;;;;;;2.43;1.10;;;18.80;99.90;;;;;;4958025;28;20271;-82
2021/07/30 02:28:00;;;;;;;1.70;1.07;;;18.90;99.90;;;;;;4973408;28;20251;-82
2021/07/30 02:30:26;;;;;;;2.67;1.30;;;18.80;99.90;;;;;;4973891;28;20506;-82
2021/07/30 02:32:52;;;;;;;2.17;0.97;;;18.80;99.90;;;;;;4977263;28;20673;-82
2021/07/30 02:35:17;;;;;;;1.67;1.00;;;18.80;99.90;;;;;;4973352;28;20167;-82
2021/07/30 02:37:43;;;;;;;3.43;1.10;;;18.90;99.90;;;;;;4973701;28;20231;-82
2021/07/30 02:40:09;;;;;;;2.00;1.37;;;18.80;99.90;;;;;;4958784;28;20186;-82
2021/07/30 02:42:35;;;;;;;3.53;1.00;;;18.80;99.90;;;;;;4974020;28;20591;-82
2021/07/30 02:45:01;;;;;;;1.73;0.90;;;18.80;99.90;;;;;;4974778;28;20576;-82
2021/07/30 02:47:26;;;;;;;2.23;1.00;;;18.80;99.90;;;;;;4973424;28;20183;-82
2021/07/30 02:49:52;;;;;;;2.43;1.07;;;18.70;99.90;;;;;;4972684;28;20235;-82
2021/07/30 02:52:18;;;;;;;2.23;1.00;;;18.60;99.90;;;;;;4972663;28;20526;-82
2021/07/30 02:54:43;;;;;;;2.47;1.03;;;18.60;99.90;;;;;;4973216;28;20164;-83
2021/07/30 02:57:09;;;;;;;2.57;1.20;;;18.50;99.90;;;;;;4977801;28;20179;-82
2021/07/30 02:59:35;;;;;;;2.73;1.10;;;18.40;99.90;;;;;;4979100;28;20235;-83
2021/07/30 03:02:00;;;;;;;3.10;1.10;;;18.40;99.90;;;;;;4977029;28;20636;-83
2021/07/30 03:04:26;;;;;;;3.97;1.10;;;18.30;99.90;;;;;;4980390;28;20235;-82
2021/07/30 03:06:52;;;;;;;2.43;1.00;;;18.30;99.90;;;;;;4981212;28;20534;-82
2021/07/30 03:09:18;;;;;;;2.57;1.47;;;18.20;99.90;;;;;;4983859;28;20478;-82
2021/07/30 03:11:43;;;;;;;2.67;1.83;;;18.20;99.90;;;;;;4980930;28;20176;-82
2021/07/30 03:14:09;;;;;;;2.13;1.33;;;18.10;99.90;;;;;;4963482;28;20563;-82
2021/07/30 03:16:35;;;;;;;3.63;1.10;;;18.10;99.90;;;;;;4979532;28;20255;-82
2021/07/30 03:19:00;;;;;;;4.40;1.50;;;18.00;99.90;;;;;;4979644;28;20213;-82
2021/07/30 03:21:27;;;;;;;2.80;1.33;;;18.00;99.90;;;;;;4981240;28;20230;-82
2021/07/30 03:23:54;;;;;;;2.60;1.30;;;17.90;99.90;;;;;;4979696;28;20196;-82
2021/07/30 03:26:20;;;;;;;2.47;1.40;;;17.90;99.90;;;;;;4980107;28;20932;-82
2021/07/30 03:28:48;;;;;;;2.47;1.50;;;17.90;99.90;;;;;;4980607;28;20606;-82
2021/07/30 03:31:14;;;;;;;2.90;1.40;;;17.80;99.90;;;;;;4980628;28;20948;-82
2021/07/30 03:33:40;;;;;;;2.87;1.80;;;17.80;99.90;;;;;;4981034;28;20571;-82
2021/07/30 03:36:05;;;;;;;2.53;1.50;;;17.80;99.90;;;;;;4979003;28;21204;-82
2021/07/30 03:38:31;;;;;;;5.90;1.70;;;17.80;99.90;;;;;;4978203;28;20255;-82
2021/07/30 03:41:04;;;;;;;2.47;1.80;;;17.70;99.90;;;;;;4978257;28;20579;-82
2021/07/30 03:43:31;;;;;;;2.00;1.40;;;17.70;99.90;;;;;;4977452;28;20167;-82
2021/07/30 03:45:57;;;;;;;3.17;1.90;;;17.70;99.90;;;;;;4979246;28;20575;-82
2021/07/30 03:48:23;;;;;;;3.10;1.40;;;17.60;99.90;;;;;;4979909;28;21256;-82
2021/07/30 03:50:48;;;;;;;3.20;1.50;;;17.60;99.90;;;;;;4979305;28;20670;-82
2021/07/30 03:53:14;;;;;;;2.63;1.37;;;17.60;99.90;;;;;;4977777;28;20160;-82
2021/07/30 03:55:40;;;;;;;2.20;1.27;;;17.60;99.90;;;;;;4978528;28;20168;-82
2021/07/30 03:58:05;;;;;;;2.30;1.20;;;17.60;99.90;;;;;;4978588;28;20602;-82
2021/07/30 04:00:31;;;;;;;2.10;1.47;;;17.50;99.90;;;;;;4946039;28;20183;-83
2021/07/30 04:02:57;;;;;;;4.90;1.30;;;17.50;99.90;;;;;;4977857;28;20242;-82
2021/07/30 04:05:23;;;;;;;4.53;1.90;;;17.50;99.90;;;;;;4962060;28;20178;-82
2021/07/30 04:07:48;;;;;;;2.13;1.30;;;17.50;99.90;;;;;;4978573;28;20194;-83
2021/07/30 04:10:14;;;;;;;2.87;1.50;;;17.50;99.90;;;;;;4979287;28;20192;-82
2021/07/30 04:12:40;;;;;;;2.30;1.70;;;17.50;99.90;;;;;;4979852;28;20214;-82
2021/07/30 04:15:06;;;;;;;4.53;1.93;;;17.50;99.90;;;;;;4978798;28;20527;-82
2021/07/30 04:17:31;;;;;;;2.87;1.40;;;17.50;99.90;;;;;;4978403;28;20616;-82
2021/07/30 04:19:57;;;;;;;2.90;1.50;;;17.40;99.90;;;;;;4977233;28;20602;-82
2021/07/30 04:22:23;;;;;;;1.90;1.20;;;17.40;99.90;;;;;;4979188;28;20298;-82
2021/07/30 04:24:48;;;;;;;6.63;2.80;;;17.40;99.90;;;;;;4979243;28;20968;-82
2021/07/30 04:27:14;;;;;;;8.47;2.80;;;17.40;99.90;;;;;;4977212;28;20179;-82
2021/07/30 04:29:41;;;;;;;4.60;1.80;;;17.40;99.90;;;;;;4978267;28;20203;-82
2021/07/30 04:32:08;;;;;;;4.57;2.20;;;17.40;99.90;;;;;;4977713;28;20176;-82
2021/07/30 04:34:35;;;;;;;3.27;2.23;;;17.40;99.90;;;;;;4958777;28;20595;-83
2021/07/30 04:37:00;;;;;;;4.43;2.17;;;17.40;99.90;;;;;;4975798;28;21171;-82
2021/07/30 04:39:26;;;;;;;2.80;2.00;;;17.30;99.90;;;;;;4974914;28;20713;-82
2021/07/30 04:41:52;;;;;;;2.63;1.90;;;17.40;99.90;;;;;;4975742;28;20665;-82
2021/07/30 04:44:18;;;;;;;4.30;1.87;;;17.40;99.90;;;;;;4977197;28;20167;-81
2021/07/30 04:46:43;;;;;;;2.60;1.93;;;17.40;99.90;;;;;;4977776;28;20175;-82
2021/07/30 04:49:09;;;;;;;5.30;2.60;;;17.50;99.90;;;;;;4976549;28;20633;-82
2021/07/30 04:51:35;;;;;;;2.70;2.10;;;17.60;99.90;;;;;;4976436;28;20199;-82
2021/07/30 04:54:00;;;;;;;5.83;2.30;;;17.60;99.90;;;;;;4976168;28;20172;-82
2021/07/30 04:56:26;;;;;;;3.07;2.10;;;17.60;99.90;;;;;;4976096;28;20556;-82
2021/07/30 04:58:52;;;;;;;2.87;2.30;;;17.60;99.90;;;;;;4977535;28;20409;-82
2021/07/30 05:01:18;;;;;;;4.90;2.40;;;17.60;99.90;;;;;;4975818;28;20182;-82
2021/07/30 05:03:44;;;;;;;3.53;1.67;;;17.60;99.90;;;;;;4976118;28;20179;-82
2021/07/30 05:06:13;;;;;;;4.63;1.97;;;17.60;99.90;;;;;;4975603;28;20943;-82
2021/07/30 05:08:39;;;;;;;2.60;2.00;;;17.70;99.90;;;;;;4975095;28;20618;-82
2021/07/30 05:11:05;;;;;;;3.50;2.40;;;17.70;99.90;;;;;;4975955;28;20637;-82
2021/07/30 05:13:31;;;;;;;3.27;2.20;;;17.80;99.90;;;;;;4976664;28;20579;-81
2021/07/30 05:15:58;;;;;;;3.67;2.43;;;17.80;99.90;;;;;;4977264;28;20168;-81
2021/07/30 05:18:24;;;;;;;3.03;1.93;;;17.80;99.90;;;;;;4977281;28;20342;-82
2021/07/30 05:20:49;;;;;;;2.97;2.40;;;17.90;99.90;;;;;;4976199;28;21157;-82
2021/07/30 05:23:15;;;;;;;3.03;1.77;;;17.90;99.90;;;;;;4975288;28;20195;-82
2021/07/30 05:25:40;;;;;;;4.17;1.97;;;18.00;99.90;;;;;;4975603;28;20239;-82
2021/07/30 05:28:06;;;;;;;4.90;2.00;;;18.00;99.90;;;;;;4975466;28;20192;-82
2021/07/30 05:30:34;;;;;;;3.33;2.17;;;18.00;99.90;;;;;;4975965;28;20258;-82
2021/07/30 05:33:00;;;;;;;3.40;2.07;;;18.10;99.90;;;;;;4958860;28;20829;-82
2021/07/30 05:35:26;;;;;;;6.30;2.60;;;18.20;99.90;;;;;;4962117;28;20579;-82
2021/07/30 05:37:52;;;;;;;7.10;2.60;;;18.20;99.90;;;;;;4941972;28;20730;-82
2021/07/30 05:40:18;;;;;;;4.10;2.30;;;18.30;99.90;;;;;;4978019;28;20671;-82
2021/07/30 05:42:44;;;;;;;3.70;2.10;;;18.30;99.90;;;;;;4978687;28;20168;-82
2021/07/30 05:45:09;;;;;;;5.40;2.10;;;18.40;99.90;;;;;;4977093;28;20234;-82
2021/07/30 05:47:35;;;;;;;2.10;1.87;;;18.50;99.90;;;;;;4978681;28;20183;-82
2021/07/30 05:50:01;;;;;;;4.87;2.07;;;18.70;99.90;;;;;;4973921;28;21205;-79
2021/07/30 05:52:26;;;;;;;4.80;1.60;;;18.80;99.90;;;;;;4955702;28;20168;-79
2021/07/30 05:54:52;;;;;;;2.77;1.40;;;18.90;99.90;;;;;;4971520;28;20703;-79
2021/07/30 05:57:18;;;;;;;4.93;2.17;;;19.20;99.90;;;;;;4971453;28;20159;-79
2021/07/30 05:59:47;;;;;;;2.97;1.40;;;19.50;99.90;;;;;;4971194;28;20247;-79
2021/07/30 06:02:13;;;;;;;3.77;1.67;;;19.70;99.90;;;;;;4955310;28;20176;-79
2021/07/30 06:04:39;;;;;;;3.13;1.90;;;20.10;99.90;;;;;;4971522;28;20648;-79
2021/07/30 06:07:05;;;;;;;2.00;1.50;;;20.50;99.90;;;;;;4972393;28;20586;-79
2021/07/30 06:09:30;;;;;;;2.90;1.60;;;21.10;99.90;;;;;;4972369;28;20199;-79
2021/07/30 06:11:57;;;;;;;4.53;1.60;;;21.50;99.90;;;;;;4956445;28;20636;-79
2021/07/30 06:14:23;;;;;;;3.10;1.33;;;22.10;99.90;;;;;;4972783;28;20172;-79
2021/07/30 06:16:49;;;;;;;3.70;1.40;;;22.60;99.90;;;;;;4972345;28;21146;-79
2021/07/30 06:19:14;;;;;;;2.60;1.20;;;23.30;99.90;;;;;;4972228;28;20191;-79
2021/07/30 06:21:40;;;;;;;2.30;1.20;;;23.90;99.90;;;;;;4972537;28;20206;-79
2021/07/30 06:24:06;;;;;;;4.47;1.63;;;24.50;99.90;;;;;;4972476;28;20167;-79
2021/07/30 06:26:31;;;;;;;3.70;1.23;;;24.90;99.90;;;;;;4939113;28;20180;-79
2021/07/30 06:28:57;;;;;;;2.57;1.37;;;25.30;99.90;;;;;;4972086;28;20195;-79
2021/07/30 06:31:23;;;;;;;3.97;1.60;;;25.70;99.90;;;;;;4972509;28;20171;-79
2021/07/30 06:33:48;;;;;;;2.53;1.20;;;26.10;99.90;;;;;;4958778;28;20572;-79
2021/07/30 06:36:17;;;;;;;2.80;1.23;;;26.50;99.90;;;;;;4975722;28;20202;-79
2021/07/30 06:38:43;;;;;;;2.90;1.50;;;26.70;99.90;;;;;;4974609;28;20192;-79
2021/07/30 06:41:13;;;;;;;3.40;1.43;;;26.90;99.90;;;;;;4976142;28;20577;-79
2021/07/30 06:43:38;;;;;;;2.37;1.20;;;27.20;99.90;;;;;;4976007;28;20175;-79
2021/07/30 06:46:04;;;;;;;2.43;1.20;;;27.30;99.90;;;;;;4975809;28;20571;-79
2021/07/30 06:48:30;;;;;;;2.40;1.20;;;27.50;99.40;;;;;;4976594;28;20206;-79
2021/07/30 06:50:56;;;;;;;2.33;0.90;;;27.70;98.60;;;;;;4975907;28;20210;-79
2021/07/30 06:53:22;;;;;;;4.77;1.00;;;27.90;97.80;;;;;;4975775;28;20318;-79
2021/07/30 06:55:48;;;;;;;1.90;1.20;;;28.10;97.20;;;;;;4974483;28;21041;-79
2021/07/30 06:58:14;;;;;;;2.13;1.37;;;28.20;96.30;;;;;;4974950;28;20688;-79
2021/07/30 07:00:40;;;;;;;5.63;1.33;;;28.30;96.40;;;;;;4975294;28;20178;-79
2021/07/30 07:03:05;;;;;;;2.77;1.10;;;28.40;95.20;;;;;;4975529;28;20179;-79
2021/07/30 07:05:33;;;;;;;1.70;1.00;;;28.50;94.70;;;;;;4974953;28;20183;-79
2021/07/30 07:07:58;;;;;;;1.60;1.00;;;28.60;94.60;;;;;;4973943;28;20287;-79
2021/07/30 07:10:24;;;;;;;5.60;1.20;;;29.10;94.60;;;;;;4975427;28;21060;-79
2021/07/30 07:12:50;;;;;;;1.83;0.90;;;29.70;94.10;;;;;;4974102;28;20182;-79
2021/07/30 07:15:15;;;;;;;3.30;1.20;;;30.20;93.40;;;;;;4975316;28;20176;-79
2021/07/30 07:17:41;;;;;;;2.17;1.10;;;30.50;92.00;;;;;;4973751;28;20196;-76
2021/07/30 07:20:07;;;;;;;2.47;1.23;;;30.70;91.10;;;;;;4974063;28;20602;-77
2021/07/30 07:22:33;;;;;;;2.00;0.70;;;30.90;90.10;;;;;;4975204;28;20184;-78
2021/07/30 07:24:59;;;;;;;2.27;1.13;;;31.10;89.00;;;;;;4990879;28;20604;-78
2021/07/30 07:27:25;;;;;;;2.70;1.23;;;31.50;88.10;;;;;;5006763;28;20792;-78
2021/07/30 07:29:50;;;;;;;2.47;0.83;;;31.90;85.70;;;;;;5008804;28;20244;-78
2021/07/30 07:32:16;;;;;;;2.43;1.00;;;32.20;83.40;;;;;;4994632;28;20184;-78
2021/07/30 07:34:42;;;;;;;4.57;1.23;;;32.40;82.30;;;;;;5005948;28;20179;-78
2021/07/30 07:37:08;;;;;;;1.70;1.10;;;32.50;78.20;;;;;;5010677;28;20637;-78
2021/07/30 07:39:34;;;;;;;3.50;1.10;;;32.40;76.40;;;;;;5007847;28;20223;-78
2021/07/30 07:41:59;;;;;;;3.60;1.63;;;32.30;74.30;;;;;;5007263;28;20236;-78
2021/07/30 07:44:25;;;;;;;3.97;1.00;;;32.30;75.10;;;;;;4998446;28;20231;-78
2021/07/30 07:46:51;;;;;;;6.07;1.20;;;32.60;74.70;;;;;;5005660;28;20540;-78
2021/07/30 07:49:17;;;;;;;2.90;1.13;;;32.80;73.30;;;;;;5013295;28;20785;-78
2021/07/30 07:51:43;;;;;;;1.60;0.90;;;32.90;71.30;;;;;;5013916;28;21116;-78
2021/07/30 07:54:09;;;;;;;1.93;1.00;;;33.30;72.20;;;;;;5012488;28;20637;-78
2021/07/30 07:56:35;;;;;;;3.13;1.00;;;33.90;72.00;;;;;;5013717;28;20174;-78
2021/07/30 07:59:01;;;;;;;2.97;0.80;;;34.40;71.50;;;;;;5013403;28;21086;-78
2021/07/30 08:01:27;;;;;;;1.93;0.90;;;34.80;69.50;;;;;;5014355;28;20177;-78
2021/07/30 08:03:53;;;;;;;3.10;1.03;;;35.20;68.00;;;;;;5012457;28;20588;-78
2021/07/30 08:06:22;;;;;;;2.00;0.97;;;35.70;66.70;;;;;;5013512;28;21195;-78
2021/07/30 08:08:48;;;;;;;1.30;0.87;;;36.00;63.90;;;;;;4995530;28;20194;-78
2021/07/30 08:11:14;;;;;;;2.30;0.90;;;36.50;62.90;;;;;;5012138;28;20852;-78
2021/07/30 08:13:40;;;;;;;2.20;0.80;;;36.90;61.60;;;;;;5012176;28;21087;-78
2021/07/30 08:16:07;;;;;;;1.50;0.87;;;37.40;60.40;;;;;;5012104;28;20579;-78
2021/07/30 08:18:33;;;;;;;1.80;0.90;;;37.60;58.00;;;;;;5012910;28;20601;-78
2021/07/30 08:21:00;;;;;;;2.00;1.10;;;37.60;56.30;;;;;;5012150;28;20569;-78
2021/07/30 08:23:27;;;;;;;3.20;0.80;;;37.30;53.80;;;;;;5011974;28;20577;-78
2021/07/30 08:25:53;;;;;;;2.00;1.03;;;36.90;53.40;;;;;;5012974;28;20641;-78
2021/07/30 08:28:18;;;;;;;2.97;0.90;;;37.00;54.50;;;;;;5012921;28;20628;-78
2021/07/30 08:30:44;;;;;;;1.40;0.70;;;37.40;54.70;;;;;;5012985;28;20202;-78
2021/07/30 08:33:10;;;;;;;1.67;0.70;;;37.60;54.00;;;;;;5013260;28;20170;-78
2021/07/30 08:35:36;;;;;;;1.70;0.80;;;38.00;53.30;;;;;;5012669;28;20581;-78
2021/07/30 08:38:02;;;;;;;2.63;0.90;;;38.20;53.10;;;;;;5012917;28;20272;-78
2021/07/30 08:40:32;;;;;;;1.73;0.90;;;38.50;52.60;;;;;;5012336;28;20686;-78
2021/07/30 08:42:59;;;;;;;2.30;0.80;;;39.00;51.70;;;;;;5011796;28;21148;-78
2021/07/30 08:45:24;;;;;;;2.00;0.80;;;39.40;52.20;;;;;;5012597;28;20569;-78
2021/07/30 08:47:51;;;;;;;1.77;0.90;;;39.90;51.30;;;;;;5011185;28;20605;-79
2021/07/30 08:50:16;;;;;;;3.20;1.20;;;40.30;50.70;;;;;;5012756;28;20217;-79
2021/07/30 08:52:43;;;;;;;3.07;0.80;;;40.70;50.00;;;;;;5012830;28;20576;-79
2021/07/30 08:55:11;;;;;;;4.30;0.80;;;41.00;49.10;;;;;;5011863;28;20202;-79
2021/07/30 08:57:37;;;;;;;3.27;1.10;;;41.40;48.30;;;;;;5012547;28;21179;-79
2021/07/30 09:00:10;;;;;;;1.70;0.80;;;41.40;46.90;;;;;;4994453;28;20608;-79
2021/07/30 09:02:37;;;;;;;1.70;0.90;;;41.60;46.60;;;;;;5012468;28;20662;-79
2021/07/30 09:05:25;;;;;;;2.80;0.73;;;42.00;46.40;;;;;;5010924;28;20581;-78
2021/07/30 09:07:51;;;;;;;2.30;1.00;;;42.20;46.00;;;;;;5010887;28;20197;-79
2021/07/30 09:10:38;;;;;;;2.33;0.90;;;42.20;45.00;;;;;;5012259;28;21202;-79
2021/07/30 09:13:19;;;;;;;4.07;0.80;;;42.40;43.80;;;;;;5011202;28;20205;-79
2021/07/30 09:15:59;;;;;;;2.10;0.80;;;42.60;44.50;;;;;;5015500;28;20580;-79
2021/07/30 09:18:27;;;;;;;1.13;0.60;;;42.50;43.20;;;;;;5012127;28;21014;-79
2021/07/30 09:20:53;;;;;;;1.40;1.00;;;42.30;42.70;;;;;;5012173;28;20561;-79
2021/07/30 09:23:19;;;;;;;3.13;1.03;;;42.20;42.40;;;;;;5012293;28;20613;-79
2021/07/30 09:25:45;;;;;;;2.80;0.77;;;42.10;42.50;;;;;;5010575;28;21175;-79
2021/07/30 09:28:11;;;;;;;1.30;0.70;;;41.90;41.90;;;;;;5011954;28;20612;-79
2021/07/30 09:30:37;;;;;;;2.93;1.00;;;41.60;41.70;;;;;;5011830;28;20621;-79
2021/07/30 09:33:04;;;;;;;2.70;0.90;;;41.40;41.40;;;;;;5012151;28;20554;-78
2021/07/30 09:35:30;;;;;;;8.90;1.67;;;41.00;41.00;;;;;;5010702;28;20627;-79
2021/07/30 09:38:18;;;;;;;2.33;1.30;;;40.50;40.60;;;;;;5010447;28;20988;-79
2021/07/30 09:40:44;;;;;;;1.50;1.00;;;40.00;41.10;;;;;;5011842;28;20170;-79
2021/07/30 09:43:24;;;;;;;2.90;1.00;;;39.50;41.00;;;;;;5012092;28;20565;-79
2021/07/30 09:46:08;;;;;;;1.70;0.90;;;39.10;41.30;;;;;;5011762;28;20577;-79
2021/07/30 09:48:51;;;;;;;3.23;0.90;;;38.60;41.20;;;;;;5010064;28;20625;-79
2021/07/30 09:51:17;;;;;;;2.20;1.00;;;37.90;41.50;;;;;;5012006;28;20624;-79
2021/07/30 09:53:44;;;;;;;2.07;0.90;;;37.50;42.00;;;;;;5013354;28;20573;-79
2021/07/30 09:56:13;;;;;;;2.13;1.20;;;37.20;42.20;;;;;;5011403;28;20565;-79
2021/07/30 09:58:40;;;;;;;2.07;0.97;;;37.10;42.60;;;;;;5010200;28;21273;-79
2021/07/30 10:01:06;;;;;;;3.40;2.93;;;36.80;42.60;;;;;;5010474;28;20577;-78
2021/07/30 10:03:36;;;;;;;5.97;0.90;;;36.80;42.90;;;;;;5010402;28;20577;-78
2021/07/30 10:06:02;;;;;;;2.53;0.90;;;36.70;43.10;;;;;;5012813;28;20585;-78
2021/07/30 10:08:28;;;;;;;2.13;0.90;;;36.60;43.50;;;;;;5014196;28;20628;-79
2021/07/30 10:10:55;;;;;;;2.00;0.90;;;36.90;44.00;;;;;;5015488;28;21189;-78
2021/07/30 10:13:25;;;;;;;3.43;1.00;;;37.40;44.50;;;;;;5015722;28;20591;-78
2021/07/30 10:15:51;;;;;;;1.53;0.80;;;37.60;43.90;;;;;;5015584;28;20569;-77
2021/07/30 10:18:19;;;;;;;2.50;1.90;;;37.70;43.40;;;;;;5015233;28;20980;-78
2021/07/30 10:20:46;;;;;;;2.43;1.50;;;38.10;43.30;;;;;;5015715;28;20591;-78
2021/07/30 10:23:15;;;;;;;1.63;1.20;;;38.40;43.00;;;;;;5013939;28;20627;-78
2021/07/30 10:25:48;;;;;;;2.17;0.90;;;38.50;42.50;;;;;;5015362;28;20577;-78
2021/07/30 10:28:27;;;;;;;1.30;0.90;;;38.50;42.30;;;;;;5015427;28;20609;-78
2021/07/30 10:30:59;;;;;;;2.77;1.10;;;38.50;42.20;;;;;;5014031;28;21397;-79
2021/07/30 10:33:48;;;;;;;1.47;0.90;;;38.40;41.80;;;;;;5014184;28;20588;-78
2021/07/30 10:36:33;;;;;;;1.87;0.70;;;38.10;41.60;;;;;;5015192;28;20568;-78
2021/07/30 10:39:26;;;;;;;1.83;1.00;;;37.60;41.70;;;;;;5014925;28;20930;-78
2021/07/30 10:42:16;;;;;;;1.50;0.90;;;37.50;41.90;;;;;;5012364;28;20597;-78
2021/07/30 10:45:19;;;;;;;1.40;0.87;;;37.60;42.70;;;;;;5015305;28;20569;-78
2021/07/30 10:47:44;;;;;;;2.03;1.00;;;37.90;42.20;;;;;;5022065;28;20652;-85
2021/07/30 10:50:40;;;;;;;1.87;0.90;;;38.30;42.30;;;;;;5015190;28;20715;-86
2021/07/30 10:53:36;;;;;;;1.40;0.90;;;38.50;42.50;;;;;;5013778;28;20174;-86
2021/07/30 10:56:18;;;;;;;1.57;1.00;;;38.90;42.00;;;;;;4994019;28;21183;-87
2021/07/30 10:58:44;;;;;;;1.40;1.00;;;38.90;41.20;;;;;;5013304;28;20679;-86
2021/07/30 11:01:12;;;;;;;2.90;1.00;;;38.70;40.70;;;;;;5013855;28;20671;-86
2021/07/30 11:03:53;;;;;;;1.60;1.10;;;38.50;40.50;;;;;;5013621;28;20221;-86
2021/07/30 11:06:21;;;;;;;3.27;0.80;;;38.40;40.70;;;;;;4998946;28;20687;-86
2021/07/30 11:09:03;;;;;;;1.50;0.80;;;38.40;41.00;;;;;;5012742;28;20601;-86
2021/07/30 11:12:04;;;;;;;5.27;1.10;;;38.40;41.10;;;;;;5014778;28;20979;-86
2021/07/30 11:14:33;;;;;;;4.07;0.87;;;38.50;41.00;;;;;;5014819;28;21337;-86
2021/07/30 11:17:05;;;;;;;1.90;1.30;;;38.30;41.10;;;;;;5012232;28;20673;-86
2021/07/30 11:19:39;;;;;;;1.60;1.00;;;38.30;40.90;;;;;;5019645;28;20632;-83
2021/07/30 11:22:14;;;;;;;5.83;1.20;;;38.30;40.80;;;;;;5012058;28;20649;-83
2021/07/30 11:24:45;;;;;;;1.50;1.00;;;38.20;40.30;;;;;;4994058;28;20573;-83
2021/07/30 11:27:13;;;;;;;2.20;1.00;;;38.20;40.60;;;;;;5026654;28;20577;-83
2021/07/30 11:29:44;;;;;;;2.37;1.00;;;38.30;40.90;;;;;;5026022;28;20696;-83
2021/07/30 11:32:12;;;;;;;3.17;1.30;;;38.40;40.70;;;;;;5028470;28;20585;-83
2021/07/30 11:34:41;;;;;;;2.83;1.20;;;38.50;40.20;;;;;;5025191;28;20577;-83
2021/07/30 11:37:11;;;;;;;2.40;1.00;;;38.40;39.60;;;;;;5025351;28;20585;-83
2021/07/30 11:39:43;;;;;;;3.30;1.00;;;38.10;39.60;;;;;;5026214;28;20683;-83
2021/07/30 11:42:37;;;;;;;1.77;1.00;;;37.90;39.50;;;;;;5020683;28;20580;-83
2021/07/30 11:45:07;;;;;;;5.00;1.30;;;37.50;39.40;;;;;;5024249;28;20716;-83
2021/07/30 11:47:35;;;;;;;1.80;1.00;;;37.00;39.00;;;;;;5023833;28;20576;-83
2021/07/30 11:50:09;;;;;;;1.50;1.00;;;36.70;39.50;;;;;;5039105;23;20755;-80
2021/07/30 11:52:37;;;;;;;2.33;1.10;;;36.40;39.90;;;;;;4979138;28;21209;-80
2021/07/30 11:55:22;;;;;;;1.50;0.90;;;36.30;40.20;;;;;;5026996;28;20687;-81
2021/07/30 11:57:52;;;;;;;1.70;1.00;;;36.00;40.30;;;;;;5018600;28;20659;-80
2021/07/30 12:00:26;;;;;;;1.77;1.00;;;35.80;40.30;;;;;;4986430;28;20714;-80
2021/07/30 12:02:52;;;;;;;1.60;1.00;;;35.50;40.30;;;;;;5000407;28;20588;-80
2021/07/30 12:05:29;;;;;;;1.80;1.10;;;35.30;40.60;;;;;;5013237;28;20609;-80
2021/07/30 12:07:56;;;;;;;2.27;1.40;;;35.20;41.00;;;;;;4998292;28;20646;-80
2021/07/30 12:10:23;;;;;;;3.30;1.57;;;35.00;41.80;;;;;;4998355;28;20602;-80
2021/07/30 12:12:51;;;;;;;1.80;1.00;;;35.00;41.70;;;;;;4981366;28;20636;-80
2021/07/30 12:15:16;;;;;;;1.50;0.80;;;35.00;41.70;;;;;;4997094;28;20577;-80
2021/07/30 12:17:42;;;;;;;2.00;1.00;;;35.00;41.80;;;;;;4998507;28;20927;-80
2021/07/30 12:20:13;;;;;;;2.33;1.13;;;35.00;42.10;;;;;;4998470;28;20218;-80
2021/07/30 12:22:40;;;;;;;1.90;1.10;;;35.00;42.30;;;;;;4998392;28;20186;-81
2021/07/30 12:25:07;;;;;;;1.77;1.00;;;35.00;41.70;;;;;;4997133;28;20946;-82
2021/07/30 12:27:34;;;;;;;1.43;1.00;;;35.00;41.80;;;;;;4982146;28;20590;-81
2021/07/30 12:30:00;;;;;;;2.63;1.50;;;35.00;41.70;;;;;;5000252;28;20637;-80
2021/07/30 12:32:37;;;;;;;1.73;1.10;;;34.70;41.90;;;;;;5002430;28;21179;-80
2021/07/30 12:35:11;;;;;;;2.30;1.00;;;34.70;42.30;;;;;;5017236;28;20668;-80
2021/07/30 12:37:38;;;;;;;2.27;1.00;;;34.60;42.20;;;;;;5002142;28;20592;-81
2021/07/30 12:40:07;;;;;;;2.20;1.20;;;34.60;42.40;;;;;;5001628;28;20683;-80
2021/07/30 12:42:34;;;;;;;2.97;1.20;;;34.50;42.60;;;;;;5003141;28;20577;-80
2021/07/30 12:45:14;;;;;;;4.73;0.97;;;34.40;42.40;;;;;;5002267;28;20583;-81
2021/07/30 12:47:49;;;;;;;3.00;1.30;;;34.30;42.00;;;;;;5003045;28;20581;-80
2021/07/30 12:50:28;;;;;;;1.90;1.13;;;34.00;41.90;;;;;;5003653;28;20630;-81
2021/07/30 12:53:06;;;;;;;2.27;1.13;;;33.80;42.20;;;;;;5002570;28;20583;-80
2021/07/30 12:55:54;;;;;;;2.00;1.40;;;33.60;42.10;;;;;;4984644;28;20615;-81